Hamel, Illinois
Current Conditions -  °F | °C
As of 3:35 AM on Monday 24 Nov 2014 (Local Time) from KALN Reporting Station
Overcast Overcast  
Wind Chill: 33°   Ceiling: 1000
Heat Index: 43°   Visibility: 10mi
Dew Point: 40°   Wind: 26mph
Humidity: 90%   Direction: 280°W
Pressure: 29.3"   Gusts: 32mph
Location:  38.89°N, 89.85°W
Report Text: KALN 240935Z AUTO 28023G28KT 10SM BKN010 OVC014 06/05 A2930 RMK AO2 T00600045
Loading
Personal Weather Stations






























Interactive Weather Map New forecast layout! Learn more

10-Day Weather Forecast

Advertisements
Track Severe Weather on mobile